createdAt,value
2018-07-14T00:00:25.413Z,23.34
2018-07-14T00:00:56.588Z,23.34
2018-07-14T00:01:27.773Z,23.37
2018-07-14T00:01:59.027Z,23.36
2018-07-14T00:02:30.227Z,23.32
2018-07-14T00:03:01.409Z,23.27
2018-07-14T00:03:33.952Z,23.24
2018-07-14T00:04:05.133Z,23.19
2018-07-14T00:04:36.328Z,23.16
2018-07-14T00:05:07.610Z,23.14
2018-07-14T00:05:38.803Z,23.15
2018-07-14T00:06:10.061Z,23.11
2018-07-14T00:06:41.236Z,23.05
2018-07-14T00:07:12.411Z,23.02
2018-07-14T00:07:43.637Z,23.01
2018-07-14T00:08:14.824Z,23.00
2018-07-14T00:08:46.000Z,22.99
2018-07-14T00:09:17.172Z,22.97
2018-07-14T00:09:48.349Z,22.95
2018-07-14T00:10:19.586Z,22.93
2018-07-14T00:10:50.764Z,22.92
2018-07-14T00:11:21.978Z,22.92
2018-07-14T00:11:53.145Z,22.92
2018-07-14T00:12:24.348Z,22.91
2018-07-14T00:12:55.609Z,22.90
2018-07-14T00:13:26.854Z,22.88
2018-07-14T00:13:58.061Z,22.87
2018-07-14T00:14:29.237Z,22.82
2018-07-14T00:15:00.436Z,22.78
2018-07-14T00:15:31.661Z,22.81
2018-07-14T00:16:02.901Z,22.80
2018-07-14T00:16:34.128Z,22.79
2018-07-14T00:17:05.425Z,22.82
2018-07-14T00:17:36.616Z,22.83
2018-07-14T00:18:07.792Z,22.83
2018-07-14T00:18:39.070Z,22.86
2018-07-14T00:19:10.256Z,22.88
2018-07-14T00:19:41.484Z,22.89
2018-07-14T00:21:08.986Z,22.76
2018-07-14T00:21:40.160Z,22.72
2018-07-14T00:22:11.360Z,22.71
2018-07-14T00:22:42.653Z,22.70
2018-07-14T00:23:15.916Z,22.67
2018-07-14T00:23:47.132Z,22.66
2018-07-14T00:24:18.444Z,22.62
2018-07-14T00:24:49.677Z,22.59
2018-07-14T00:25:20.857Z,22.57
2018-07-14T00:25:52.125Z,22.56
2018-07-14T00:26:23.352Z,22.56
2018-07-14T00:26:54.630Z,22.55
2018-07-14T00:27:27.125Z,22.55
2018-07-14T00:27:58.304Z,22.55
2018-07-14T00:28:29.480Z,22.55
2018-07-14T00:29:00.705Z,22.52
2018-07-14T00:29:31.934Z,22.51
2018-07-14T00:30:05.889Z,22.49
2018-07-14T00:30:37.129Z,22.49
2018-07-14T00:31:47.185Z,22.49
2018-07-14T00:32:18.410Z,22.46
2018-07-14T00:32:49.592Z,22.45
2018-07-14T00:33:20.771Z,22.43
2018-07-14T00:33:51.997Z,22.44
2018-07-14T00:34:23.482Z,22.44
2018-07-14T00:34:54.688Z,22.44
2018-07-14T00:35:25.913Z,22.44
2018-07-14T00:35:57.150Z,22.47
2018-07-14T00:36:28.369Z,22.45
2018-07-14T00:36:59.592Z,22.47
2018-07-14T00:37:30.826Z,22.48
2018-07-14T00:38:02.064Z,22.47
2018-07-14T00:38:33.345Z,22.48
2018-07-14T00:39:04.590Z,22.45
2018-07-14T00:39:35.817Z,22.44
2018-07-14T00:40:07.042Z,22.43
2018-07-14T00:40:38.216Z,22.40
2018-07-14T00:41:09.396Z,22.38
2018-07-14T00:41:40.625Z,22.37
2018-07-14T00:42:11.816Z,22.37
2018-07-14T00:42:43.006Z,22.36
2018-07-14T00:43:15.445Z,22.35
2018-07-14T00:43:46.680Z,22.34
2018-07-14T00:44:17.868Z,22.34
2018-07-14T00:44:49.068Z,22.33
2018-07-14T00:45:20.240Z,22.31
2018-07-14T00:45:51.360Z,22.31
2018-07-14T00:46:22.486Z,22.28
2018-07-14T00:46:53.614Z,22.28
2018-07-14T00:47:24.754Z,22.26
2018-07-14T00:47:56.408Z,22.26
2018-07-14T00:48:27.519Z,22.27
2018-07-14T00:48:58.633Z,22.26
2018-07-14T00:49:29.743Z,22.27
2018-07-14T00:50:00.929Z,22.29
2018-07-14T00:50:32.965Z,22.32
2018-07-14T00:51:04.143Z,22.32
2018-07-14T00:51:35.361Z,22.33
2018-07-14T00:52:06.588Z,22.36
2018-07-14T00:52:37.767Z,22.37
2018-07-14T00:53:09.236Z,22.40
2018-07-14T00:53:40.462Z,22.40
2018-07-14T00:54:11.716Z,22.41
2018-07-14T00:54:42.923Z,22.43
2018-07-14T00:55:14.152Z,22.46
2018-07-14T00:55:45.343Z,22.49
2018-07-14T00:56:16.513Z,22.50
2018-07-14T00:56:48.436Z,22.52
2018-07-14T00:57:19.604Z,22.53
2018-07-14T00:57:50.833Z,22.54
2018-07-14T00:58:22.017Z,22.54
2018-07-14T00:58:54.312Z,22.54
2018-07-14T00:59:25.680Z,22.54
2018-07-14T01:00:04.273Z,22.52
2018-07-14T01:00:35.499Z,22.51
2018-07-14T01:01:06.679Z,22.51
2018-07-14T01:01:37.947Z,22.50
2018-07-14T01:02:09.135Z,22.50
2018-07-14T01:02:40.312Z,22.48
2018-07-14T01:03:12.346Z,22.48
2018-07-14T01:03:43.521Z,22.48
2018-07-14T01:04:14.702Z,22.48
2018-07-14T01:04:45.951Z,22.50
2018-07-14T01:05:17.181Z,22.50
2018-07-14T01:05:48.408Z,22.50
2018-07-14T01:06:19.594Z,22.46
2018-07-14T01:06:50.835Z,22.45
2018-07-14T01:07:22.053Z,22.47
2018-07-14T01:07:53.234Z,22.46
2018-07-14T01:08:24.462Z,22.45
2018-07-14T01:08:55.640Z,22.45
2018-07-14T01:09:26.873Z,22.43
2018-07-14T01:09:58.100Z,22.44
2018-07-14T01:10:29.373Z,22.48
2018-07-14T01:11:00.605Z,22.49
2018-07-14T01:11:31.788Z,22.48
2018-07-14T01:12:03.002Z,22.49
2018-07-14T01:12:34.184Z,22.47
2018-07-14T01:13:05.362Z,22.47
2018-07-14T01:13:36.532Z,22.43
2018-07-14T01:14:07.738Z,22.42
2018-07-14T01:14:38.977Z,22.43
2018-07-14T01:15:10.794Z,22.44
2018-07-14T01:15:42.010Z,22.41
2018-07-14T01:16:13.237Z,22.38
2018-07-14T01:16:44.416Z,22.37
2018-07-14T01:17:15.650Z,22.34
2018-07-14T01:17:47.040Z,22.32
2018-07-14T01:18:18.147Z,22.29
2018-07-14T01:18:49.316Z,22.27
2018-07-14T01:19:21.653Z,22.24
2018-07-14T01:19:52.844Z,22.23
2018-07-14T01:20:24.025Z,22.22
2018-07-14T01:20:56.295Z,22.19
2018-07-14T01:21:27.546Z,22.17
2018-07-14T01:21:58.729Z,22.16
2018-07-14T01:22:29.932Z,22.13
2018-07-14T01:23:01.153Z,22.13
2018-07-14T01:23:32.390Z,22.13
2018-07-14T01:24:03.572Z,22.14
2018-07-14T01:24:34.777Z,22.13
2018-07-14T01:25:06.009Z,22.13
2018-07-14T01:25:37.184Z,22.12
2018-07-14T01:26:08.357Z,22.13
2018-07-14T01:26:39.578Z,22.13
2018-07-14T01:27:10.833Z,22.14
2018-07-14T01:27:42.062Z,22.14
2018-07-14T01:28:13.266Z,22.16
2018-07-14T01:28:44.507Z,22.16
2018-07-14T01:29:15.723Z,22.18
2018-07-14T01:29:46.993Z,22.20
2018-07-14T01:30:18.180Z,22.23
2018-07-14T01:30:49.349Z,22.26
2018-07-14T01:31:20.524Z,22.30
2018-07-14T01:31:51.749Z,22.31
2018-07-14T01:32:22.942Z,22.33
2018-07-14T01:32:54.117Z,22.34
2018-07-14T01:33:25.345Z,22.37
2018-07-14T01:33:56.620Z,22.38
2018-07-14T01:34:27.865Z,22.40
2018-07-14T01:34:59.096Z,22.38
2018-07-14T01:35:30.285Z,22.37
2018-07-14T01:36:01.514Z,22.35
2018-07-14T01:36:32.697Z,22.35
2018-07-14T01:37:03.886Z,22.33
2018-07-14T01:37:35.106Z,22.32
2018-07-14T01:38:06.288Z,22.32
2018-07-14T01:38:37.513Z,22.31
2018-07-14T01:39:08.733Z,22.30
2018-07-14T01:39:39.900Z,22.32
2018-07-14T01:40:11.074Z,22.33
2018-07-14T01:40:42.401Z,22.33
2018-07-14T01:41:13.529Z,22.33
2018-07-14T01:41:44.763Z,22.34
2018-07-14T01:42:16.008Z,22.36
2018-07-14T01:42:47.211Z,22.38
2018-07-14T01:43:18.434Z,22.39
2018-07-14T01:43:49.684Z,22.40
2018-07-14T01:44:20.860Z,22.41
2018-07-14T01:44:52.029Z,22.41
2018-07-14T01:45:23.196Z,22.41
2018-07-14T01:45:54.371Z,22.42
2018-07-14T01:46:25.553Z,22.43
2018-07-14T01:46:56.743Z,22.43
2018-07-14T01:47:27.969Z,22.42
2018-07-14T01:47:59.241Z,22.44
2018-07-14T01:48:30.483Z,22.45
2018-07-14T01:49:01.724Z,22.47
2018-07-14T01:49:32.904Z,22.50
2018-07-14T01:50:04.083Z,22.52
2018-07-14T01:50:35.260Z,22.52
2018-07-14T01:51:06.443Z,22.56
2018-07-14T01:51:37.624Z,22.59
2018-07-14T01:52:08.852Z,22.61
2018-07-14T01:52:40.121Z,22.61
2018-07-14T01:53:11.373Z,22.62
2018-07-14T01:53:42.552Z,22.64
2018-07-14T01:54:14.735Z,22.64
2018-07-14T01:54:46.020Z,22.61
2018-07-14T01:55:17.788Z,22.58
2018-07-14T01:55:48.965Z,22.57
2018-07-14T01:56:20.197Z,22.54
2018-07-14T01:56:51.423Z,22.52
2018-07-14T01:57:22.600Z,22.51
2018-07-14T01:57:53.829Z,22.51
2018-07-14T01:58:25.335Z,22.51
2018-07-14T01:58:56.529Z,22.51
2018-07-14T01:59:27.751Z,22.48
2018-07-14T01:59:58.933Z,22.46
2018-07-14T02:00:30.134Z,22.47
2018-07-14T02:01:01.385Z,22.46
2018-07-14T02:01:32.613Z,22.48
2018-07-14T02:02:03.797Z,22.48
2018-07-14T02:02:34.972Z,22.49
2018-07-14T02:03:07.396Z,22.47
2018-07-14T02:03:38.568Z,22.45
2018-07-14T02:04:09.796Z,22.47
2018-07-14T02:04:41.587Z,22.48
2018-07-14T02:05:14.868Z,22.48
2018-07-14T02:05:46.120Z,22.48
2018-07-14T02:06:17.393Z,22.49
2018-07-14T02:06:48.573Z,22.49
2018-07-14T02:07:20.368Z,22.50
2018-07-14T02:07:51.589Z,22.51
2018-07-14T02:08:22.811Z,22.51
2018-07-14T02:08:54.001Z,22.51
2018-07-14T02:09:25.192Z,22.51
2018-07-14T02:09:56.460Z,22.51
2018-07-14T02:10:27.666Z,22.52
2018-07-14T02:10:58.854Z,22.53
2018-07-14T02:11:30.286Z,22.53
2018-07-14T02:12:01.555Z,22.53
2018-07-14T02:12:32.735Z,22.53
2018-07-14T02:13:03.917Z,22.54
2018-07-14T02:13:35.159Z,22.54
2018-07-14T02:14:06.348Z,22.53
2018-07-14T02:14:37.636Z,22.51
2018-07-14T02:15:08.824Z,22.49
2018-07-14T02:15:40.069Z,22.48
2018-07-14T02:16:11.249Z,22.48
2018-07-14T02:16:42.426Z,22.48
2018-07-14T02:17:13.598Z,22.47
2018-07-14T02:17:44.808Z,22.44
2018-07-14T02:18:15.981Z,22.40
2018-07-14T02:18:47.194Z,22.42
2018-07-14T02:19:18.433Z,22.42
2018-07-14T02:19:49.608Z,22.43
2018-07-14T02:20:20.744Z,22.44
2018-07-14T02:20:51.859Z,22.46
2018-07-14T02:21:22.967Z,22.46
2018-07-14T02:21:54.080Z,22.47
2018-07-14T02:22:25.206Z,22.47
2018-07-14T02:22:56.361Z,22.49
2018-07-14T02:23:27.530Z,22.49
2018-07-14T02:23:58.712Z,22.49
2018-07-14T02:24:29.863Z,22.48
2018-07-14T02:25:01.032Z,22.48
2018-07-14T02:25:32.152Z,22.48
2018-07-14T02:26:03.260Z,22.50
2018-07-14T02:26:34.388Z,22.53
2018-07-14T02:27:06.212Z,22.54
2018-07-14T02:27:37.415Z,22.57
2018-07-14T02:28:08.526Z,22.58
2018-07-14T02:28:39.656Z,22.59
2018-07-14T02:29:10.834Z,22.61
2018-07-14T02:29:41.954Z,22.59
2018-07-14T02:30:13.098Z,22.62
2018-07-14T02:30:44.265Z,22.62
2018-07-14T02:31:15.386Z,22.65
2018-07-14T02:31:46.508Z,22.65
2018-07-14T02:32:17.785Z,22.65
2018-07-14T02:32:49.010Z,22.64
2018-07-14T02:33:20.846Z,22.63
2018-07-14T02:33:52.017Z,22.63
2018-07-14T02:34:23.253Z,22.63
2018-07-14T02:34:57.313Z,22.66
2018-07-14T02:35:28.551Z,22.65
2018-07-14T02:35:59.737Z,22.63
2018-07-14T02:36:30.977Z,22.60
2018-07-14T02:37:02.209Z,22.58
2018-07-14T02:37:33.501Z,22.55
2018-07-14T02:38:04.680Z,22.53
2018-07-14T02:38:35.871Z,22.51
2018-07-14T02:39:07.641Z,22.49
2018-07-14T02:39:38.833Z,22.46
2018-07-14T02:40:10.001Z,22.42
2018-07-14T02:40:41.206Z,22.42
2018-07-14T02:41:12.482Z,22.42
2018-07-14T02:41:43.772Z,22.42
2018-07-14T02:42:14.986Z,22.41
2018-07-14T02:42:46.149Z,22.41
2018-07-14T02:43:17.317Z,22.42
2018-07-14T02:43:48.494Z,22.43
2018-07-14T02:44:19.677Z,22.42
2018-07-14T02:44:50.868Z,22.39
2018-07-14T02:45:22.040Z,22.37
2018-07-14T02:45:53.228Z,22.36
2018-07-14T02:46:24.438Z,22.36
2018-07-14T02:46:57.818Z,22.38
2018-07-14T02:47:28.990Z,22.38
2018-07-14T02:48:00.164Z,22.37
2018-07-14T02:48:31.392Z,22.36
2018-07-14T02:49:02.644Z,22.38
2018-07-14T02:49:33.879Z,22.40
2018-07-14T02:50:05.127Z,22.39
2018-07-14T02:50:36.311Z,22.39
2018-07-14T02:51:07.537Z,22.40
2018-07-14T02:51:38.813Z,22.41
2018-07-14T02:52:10.045Z,22.39
2018-07-14T02:52:41.314Z,22.39
2018-07-14T02:53:12.488Z,22.39
2018-07-14T02:53:43.663Z,22.40
2018-07-14T02:54:14.897Z,22.40
2018-07-14T02:54:46.081Z,22.42
2018-07-14T02:55:17.257Z,22.42
2018-07-14T02:55:48.428Z,22.40
2018-07-14T02:56:19.613Z,22.42
2018-07-14T02:56:50.834Z,22.41
2018-07-14T02:57:22.007Z,22.40
2018-07-14T02:57:53.179Z,22.39
2018-07-14T02:58:24.401Z,22.38
2018-07-14T02:58:55.581Z,22.38
2018-07-14T02:59:26.769Z,22.38
2018-07-14T02:59:57.963Z,22.39
2018-07-14T03:00:29.148Z,22.39
2018-07-14T03:01:00.326Z,22.40
2018-07-14T03:01:35.940Z,22.42
2018-07-14T03:02:08.082Z,22.42
2018-07-14T03:02:39.268Z,22.44
2018-07-14T03:03:12.199Z,18.97
2018-07-14T03:03:43.433Z,22.41
2018-07-14T03:04:14.636Z,22.42
2018-07-14T03:04:45.821Z,22.43
2018-07-14T03:05:19.884Z,22.44
2018-07-14T03:05:51.071Z,22.47
2018-07-14T03:06:22.260Z,22.47
2018-07-14T03:06:53.489Z,22.51
2018-07-14T03:07:24.753Z,22.50
2018-07-14T03:07:55.937Z,22.49
2018-07-14T03:08:27.165Z,22.52
2018-07-14T03:08:58.424Z,22.53
2018-07-14T03:09:29.615Z,22.51
2018-07-14T03:10:00.837Z,22.53
2018-07-14T03:10:32.017Z,22.58
2018-07-14T03:11:03.202Z,22.64
2018-07-14T03:11:34.443Z,22.67
2018-07-14T03:12:05.625Z,22.70
2018-07-14T03:12:36.804Z,22.78
2018-07-14T03:13:08.041Z,22.79
2018-07-14T03:13:39.217Z,22.86
2018-07-14T03:14:10.397Z,22.92
2018-07-14T03:14:41.568Z,22.96
2018-07-14T03:15:12.796Z,22.98
2018-07-14T03:15:43.976Z,23.02
2018-07-14T03:16:15.188Z,23.07
2018-07-14T03:16:46.394Z,23.11
2018-07-14T03:17:17.584Z,23.14
2018-07-14T03:17:49.336Z,23.18
2018-07-14T03:18:20.506Z,23.20
2018-07-14T03:18:51.679Z,23.26
2018-07-14T03:19:22.910Z,23.33
2018-07-14T03:19:54.107Z,23.34
2018-07-14T03:20:25.288Z,23.35
2018-07-14T03:20:56.509Z,23.37
2018-07-14T03:21:27.689Z,23.40
2018-07-14T03:21:58.957Z,23.42
2018-07-14T03:22:30.190Z,23.44
2018-07-14T03:23:01.435Z,23.49
2018-07-14T03:23:32.613Z,23.52
2018-07-14T03:24:03.778Z,23.57
2018-07-14T03:24:35.005Z,23.67
2018-07-14T03:25:06.188Z,23.78
2018-07-14T03:25:37.413Z,23.85
2018-07-14T03:26:08.589Z,23.96
2018-07-14T03:26:39.817Z,24.06
2018-07-14T03:27:11.028Z,24.11
2018-07-14T03:27:42.213Z,24.17
2018-07-14T03:28:13.715Z,24.24
2018-07-14T03:28:44.936Z,24.31
2018-07-14T03:29:16.144Z,24.38
2018-07-14T03:29:47.361Z,24.43
2018-07-14T03:30:18.602Z,24.49
2018-07-14T03:30:49.785Z,24.59
2018-07-14T03:31:20.972Z,24.68
2018-07-14T03:31:52.201Z,24.70
2018-07-14T03:32:23.436Z,24.73
2018-07-14T03:32:54.667Z,24.69
2018-07-14T03:33:25.914Z,24.67
2018-07-14T03:33:57.104Z,24.69
2018-07-14T03:34:28.288Z,24.66
2018-07-14T03:34:59.493Z,24.71
2018-07-14T03:35:30.691Z,24.76
2018-07-14T03:36:01.873Z,24.87
2018-07-14T03:36:33.120Z,24.94
2018-07-14T03:37:04.270Z,24.96
2018-07-14T03:37:35.477Z,25.02
2018-07-14T03:38:06.668Z,25.04
2018-07-14T03:38:37.896Z,25.03
2018-07-14T03:39:09.125Z,25.09
2018-07-14T03:39:40.344Z,25.18
2018-07-14T03:40:11.530Z,25.31
2018-07-14T03:40:43.585Z,25.26
2018-07-14T03:41:14.825Z,25.28
2018-07-14T03:41:46.071Z,25.29
2018-07-14T03:42:17.341Z,25.35
2018-07-14T03:42:48.545Z,25.45
2018-07-14T03:43:19.724Z,25.46
2018-07-14T03:43:50.908Z,25.49
2018-07-14T03:44:23.095Z,25.58
2018-07-14T03:44:55.293Z,25.63
2018-07-14T03:45:26.580Z,25.70
2018-07-14T03:45:57.769Z,25.59
2018-07-14T03:46:28.949Z,25.60
2018-07-14T03:47:00.131Z,25.58
2018-07-14T03:47:31.310Z,25.59
2018-07-14T03:48:02.541Z,25.67
2018-07-14T03:48:33.772Z,25.67
2018-07-14T03:49:04.949Z,25.83
2018-07-14T03:49:36.129Z,25.93
2018-07-14T03:50:07.317Z,25.92
2018-07-14T03:50:38.545Z,25.91
2018-07-14T03:51:09.830Z,25.84
2018-07-14T03:51:41.057Z,25.74
2018-07-14T03:52:12.244Z,25.72
2018-07-14T03:52:43.440Z,25.77
2018-07-14T03:53:14.685Z,25.82
2018-07-14T03:53:45.873Z,25.90
2018-07-14T03:54:17.092Z,25.99
2018-07-14T03:54:48.321Z,26.06
2018-07-14T03:55:19.505Z,26.14
2018-07-14T03:55:50.750Z,26.17
2018-07-14T03:56:21.996Z,26.16
2018-07-14T03:56:53.300Z,26.15
2018-07-14T03:57:24.482Z,26.27
2018-07-14T03:57:55.662Z,26.17
2018-07-14T03:58:26.845Z,26.19
2018-07-14T03:58:58.085Z,26.31
2018-07-14T03:59:29.272Z,26.38
2018-07-14T04:00:00.497Z,26.45
2018-07-14T04:00:31.741Z,26.57
2018-07-14T04:01:02.936Z,26.64
2018-07-14T04:01:34.123Z,26.69
2018-07-14T04:02:06.201Z,26.76
2018-07-14T04:02:37.431Z,26.75
2018-07-14T04:03:08.627Z,26.71
2018-07-14T04:03:39.861Z,26.63
2018-07-14T04:04:11.104Z,26.54
2018-07-14T04:04:43.059Z,26.44
2018-07-14T04:05:14.286Z,26.39
2018-07-14T04:05:45.464Z,26.26
2018-07-14T04:06:16.651Z,26.01
2018-07-14T04:06:47.885Z,25.74
2018-07-14T04:07:19.146Z,25.48
2018-07-14T04:07:50.389Z,25.29
2018-07-14T04:08:21.584Z,25.09
2018-07-14T04:08:52.760Z,24.98
2018-07-14T04:09:23.942Z,24.92
2018-07-14T04:09:55.121Z,24.93
2018-07-14T04:10:26.412Z,24.96
2018-07-14T04:10:57.600Z,25.04
2018-07-14T04:11:28.781Z,25.21
2018-07-14T04:11:59.962Z,25.37
2018-07-14T04:12:31.205Z,25.51
2018-07-14T04:13:02.392Z,25.63
2018-07-14T04:13:34.571Z,25.75
2018-07-14T04:14:05.765Z,25.87
2018-07-14T04:14:37.019Z,25.97
2018-07-14T04:15:08.250Z,26.06
2018-07-14T04:15:39.521Z,25.97
2018-07-14T04:16:10.760Z,25.86
2018-07-14T04:16:41.953Z,25.62
2018-07-14T04:17:13.132Z,25.43
2018-07-14T04:17:44.406Z,25.29
2018-07-14T04:18:16.245Z,25.15
2018-07-14T04:18:47.481Z,25.07
2018-07-14T04:19:18.783Z,25.09
2018-07-14T04:19:50.021Z,25.17
2018-07-14T04:20:21.261Z,25.30
2018-07-14T04:20:52.529Z,25.49
2018-07-14T04:21:23.710Z,25.69
2018-07-14T04:21:54.896Z,25.94
2018-07-14T04:22:26.604Z,26.10
2018-07-14T04:22:57.817Z,26.30
2018-07-14T04:23:29.225Z,26.38
2018-07-14T04:24:00.412Z,26.37
2018-07-14T04:24:31.653Z,26.31
2018-07-14T04:25:02.856Z,26.08
2018-07-14T04:25:34.083Z,25.82
2018-07-14T04:26:05.279Z,25.51
2018-07-14T04:26:37.060Z,25.30
2018-07-14T04:27:08.297Z,25.25
2018-07-14T04:27:39.480Z,25.27
2018-07-14T04:28:10.652Z,25.35
2018-07-14T04:28:41.870Z,25.48
2018-07-14T04:29:13.109Z,25.56
2018-07-14T04:29:45.542Z,25.59
2018-07-14T04:30:16.720Z,25.69
2018-07-14T04:30:47.915Z,25.66
2018-07-14T04:31:19.694Z,25.66
2018-07-14T04:31:50.936Z,25.67
2018-07-14T04:32:22.188Z,25.63
2018-07-14T04:32:53.408Z,25.56
2018-07-14T04:33:24.604Z,25.43
2018-07-14T04:33:55.781Z,25.35
2018-07-14T04:34:26.966Z,25.29
2018-07-14T04:34:58.250Z,25.18
2018-07-14T04:35:30.420Z,25.17
2018-07-14T04:36:01.714Z,25.21
2018-07-14T04:36:32.904Z,25.27
2018-07-14T04:37:04.087Z,25.40
2018-07-14T04:37:35.325Z,25.65
2018-07-14T04:38:06.580Z,25.96
2018-07-14T04:38:37.817Z,26.23
2018-07-14T04:39:09.081Z,26.31
2018-07-14T04:39:40.265Z,26.26
2018-07-14T04:40:11.441Z,26.22
2018-07-14T04:40:42.612Z,26.37
2018-07-14T04:41:13.798Z,26.53
2018-07-14T04:41:45.041Z,26.67
2018-07-14T04:42:16.309Z,26.83
2018-07-14T04:42:47.515Z,26.86
2018-07-14T04:43:18.761Z,26.74
2018-07-14T04:43:49.982Z,26.62
2018-07-14T04:44:21.200Z,26.62
2018-07-14T04:44:52.441Z,26.56
2018-07-14T04:45:23.685Z,26.31
2018-07-14T04:45:55.192Z,26.06
2018-07-14T04:46:26.389Z,25.93
2018-07-14T04:46:57.565Z,25.79
2018-07-14T04:47:28.794Z,25.64
2018-07-14T04:47:59.994Z,25.61
2018-07-14T04:48:31.294Z,25.58
2018-07-14T04:49:02.489Z,25.49
2018-07-14T04:49:33.680Z,25.53
2018-07-14T04:50:04.917Z,25.50
2018-07-14T04:50:36.165Z,25.54
2018-07-14T04:51:07.368Z,25.52
2018-07-14T04:51:38.609Z,25.49
2018-07-14T04:52:09.808Z,25.54
2018-07-14T04:52:41.045Z,25.59
2018-07-14T04:53:12.281Z,25.64
2018-07-14T04:53:44.265Z,25.70
2018-07-14T04:54:15.506Z,25.85
2018-07-14T04:54:46.713Z,26.01
2018-07-14T04:55:17.900Z,26.22
2018-07-14T04:55:49.084Z,26.33
2018-07-14T04:56:20.312Z,26.35
2018-07-14T04:56:51.548Z,26.28
2018-07-14T04:57:22.752Z,26.26
2018-07-14T04:57:53.924Z,26.19
2018-07-14T04:58:25.106Z,26.23
2018-07-14T04:58:56.324Z,26.28
2018-07-14T04:59:27.500Z,26.42
2018-07-14T04:59:58.689Z,26.59
2018-07-14T05:00:29.868Z,26.89
2018-07-14T05:01:01.103Z,27.16
2018-07-14T05:01:32.354Z,27.37
2018-07-14T05:02:03.536Z,27.66
2018-07-14T05:02:34.776Z,27.91
2018-07-14T05:03:05.952Z,28.12
2018-07-14T05:03:37.132Z,28.15
2018-07-14T05:04:08.369Z,28.28
2018-07-14T05:04:39.556Z,28.45
2018-07-14T05:05:10.728Z,28.58
2018-07-14T05:05:41.956Z,28.81
2018-07-14T05:06:13.188Z,29.05
2018-07-14T05:06:44.366Z,29.25
2018-07-14T05:07:15.556Z,29.48
2018-07-14T05:07:46.765Z,29.68
2018-07-14T05:08:17.931Z,29.86
2018-07-14T05:08:49.100Z,29.97
2018-07-14T05:09:20.381Z,30.06
2018-07-14T05:09:51.616Z,29.94
2018-07-14T05:10:22.809Z,29.92
2018-07-14T05:10:53.998Z,30.10
2018-07-14T05:11:25.224Z,30.15
2018-07-14T05:11:57.139Z,30.31
2018-07-14T05:12:28.369Z,30.54
2018-07-14T05:12:59.964Z,30.76
2018-07-14T05:13:31.152Z,30.93
2018-07-14T05:14:02.372Z,30.97
2018-07-14T05:14:36.423Z,30.93
2018-07-14T05:15:07.616Z,30.87
2018-07-14T05:15:39.517Z,31.06
2018-07-14T05:16:10.700Z,31.07
2018-07-14T05:16:44.017Z,31.16
2018-07-14T05:17:15.199Z,31.04
2018-07-14T05:17:51.196Z,30.69
2018-07-14T05:18:22.394Z,30.55
2018-07-14T05:18:53.626Z,30.46
2018-07-14T05:19:25.109Z,30.40
2018-07-14T05:19:56.935Z,30.34
2018-07-14T05:20:28.196Z,30.27
2018-07-14T05:20:59.428Z,30.30
2018-07-14T05:21:30.624Z,30.20
2018-07-14T05:22:01.814Z,30.19
2018-07-14T05:22:33.047Z,30.25
2018-07-14T05:23:04.237Z,30.33
2018-07-14T05:23:35.412Z,30.46
2018-07-14T05:24:06.642Z,30.53
2018-07-14T05:24:37.828Z,30.51
2018-07-14T05:25:09.037Z,30.40
2018-07-14T05:25:40.206Z,30.35
2018-07-14T05:26:11.434Z,30.10
2018-07-14T05:26:42.612Z,29.88
2018-07-14T05:27:13.834Z,29.89
2018-07-14T05:27:45.024Z,29.86
2018-07-14T05:28:16.193Z,29.83
2018-07-14T05:28:47.362Z,29.71
2018-07-14T05:29:18.528Z,29.81
2018-07-14T05:29:49.786Z,29.88
2018-07-14T05:30:21.013Z,29.98
2018-07-14T05:30:52.181Z,30.07
2018-07-14T05:31:23.397Z,30.14
2018-07-14T05:31:54.624Z,30.19
2018-07-14T05:32:25.824Z,30.17
2018-07-14T05:32:57.083Z,30.11
2018-07-14T05:33:28.261Z,30.15
2018-07-14T05:33:59.428Z,30.05
2018-07-14T05:34:30.592Z,30.01
2018-07-14T05:35:01.802Z,29.85
2018-07-14T05:35:32.974Z,29.71
2018-07-14T05:36:04.225Z,29.88
2018-07-14T05:36:35.408Z,30.00
2018-07-14T05:37:06.629Z,29.99
2018-07-14T05:37:37.812Z,30.08
2018-07-14T05:38:08.980Z,30.02
2018-07-14T05:38:40.205Z,29.87
2018-07-14T05:39:11.416Z,29.74
2018-07-14T05:39:42.640Z,29.70
2018-07-14T05:40:13.832Z,29.73
2018-07-14T05:40:45.008Z,29.70
2018-07-14T05:41:16.180Z,29.67
2018-07-14T05:41:47.392Z,29.64
2018-07-14T05:42:18.613Z,29.57
2018-07-14T05:42:49.840Z,29.53
2018-07-14T05:43:21.011Z,29.46
2018-07-14T05:43:52.182Z,29.36
2018-07-14T05:44:23.362Z,29.29
2018-07-14T05:44:54.584Z,29.21
2018-07-14T05:45:25.762Z,28.93
2018-07-14T05:45:56.934Z,28.86
2018-07-14T05:46:28.157Z,28.74
2018-07-14T05:46:59.345Z,28.28
2018-07-14T05:47:30.577Z,28.76
2018-07-14T05:48:01.857Z,28.59
2018-07-14T05:48:33.055Z,28.52
2018-07-14T05:49:04.224Z,28.56
2018-07-14T05:49:35.443Z,28.63
2018-07-14T05:50:06.670Z,28.60
2018-07-14T05:50:37.852Z,28.52
2018-07-14T05:51:09.060Z,28.40
2018-07-14T05:51:40.233Z,28.35
2018-07-14T05:52:11.543Z,28.25
2018-07-14T05:52:42.660Z,28.13
2018-07-14T05:53:13.824Z,27.97
2018-07-14T05:53:45.054Z,27.80
2018-07-14T05:54:16.281Z,27.82
2018-07-14T05:54:47.453Z,27.85
2018-07-14T05:55:18.618Z,27.89
2018-07-14T05:55:49.788Z,27.97
2018-07-14T05:56:20.960Z,28.02
2018-07-14T05:56:52.137Z,28.09
2018-07-14T05:57:23.355Z,28.17
2018-07-14T05:57:54.577Z,28.20
2018-07-14T05:58:25.752Z,28.20
2018-07-14T05:58:56.916Z,28.19
2018-07-14T05:59:28.080Z,28.26
2018-07-14T05:59:59.253Z,28.28
2018-07-14T06:00:30.422Z,28.24
2018-07-14T06:01:01.593Z,28.22
2018-07-14T06:01:32.768Z,28.15
2018-07-14T06:02:03.941Z,28.14
2018-07-14T06:02:35.157Z,28.09
2018-07-14T06:03:06.377Z,28.08
2018-07-14T06:03:37.559Z,28.07
2018-07-14T06:04:08.726Z,28.20
2018-07-14T06:04:39.958Z,28.23
2018-07-14T06:05:11.138Z,28.26
2018-07-14T06:05:42.361Z,28.24
2018-07-14T06:06:13.548Z,28.17
2018-07-14T06:06:44.749Z,27.96
2018-07-14T06:07:15.969Z,27.87
2018-07-14T06:07:47.160Z,27.81
2018-07-14T06:08:18.343Z,27.75
2018-07-14T06:08:49.556Z,27.74
2018-07-14T06:09:20.773Z,27.76
2018-07-14T06:09:51.954Z,27.72
2018-07-14T06:10:23.176Z,27.82
2018-07-14T06:10:54.394Z,27.80
2018-07-14T06:11:25.568Z,27.75
2018-07-14T06:11:56.732Z,27.77
2018-07-14T06:12:27.949Z,27.79
2018-07-14T06:12:59.124Z,27.70
2018-07-14T06:13:30.337Z,27.66
2018-07-14T06:14:01.610Z,27.71
2018-07-14T06:14:32.787Z,27.68
2018-07-14T06:15:04.013Z,27.89
2018-07-14T06:15:35.240Z,27.83
2018-07-14T06:16:06.473Z,27.81
2018-07-14T06:16:37.666Z,27.84
2018-07-14T06:17:08.879Z,27.80
2018-07-14T06:17:40.038Z,27.71
2018-07-14T06:18:11.326Z,27.69
2018-07-14T06:18:42.524Z,27.64
2018-07-14T06:19:13.697Z,27.48
2018-07-14T06:19:44.883Z,27.29
2018-07-14T06:20:16.118Z,27.30
2018-07-14T06:20:47.295Z,27.35
2018-07-14T06:21:18.474Z,27.36
2018-07-14T06:21:49.650Z,27.29
2018-07-14T06:22:20.832Z,27.39
2018-07-14T06:22:52.017Z,27.56
2018-07-14T06:23:23.196Z,27.64
2018-07-14T06:23:54.366Z,27.79
2018-07-14T06:24:25.541Z,27.83
2018-07-14T06:24:56.754Z,27.79
2018-07-14T06:25:27.973Z,27.71
2018-07-14T06:25:59.148Z,27.67
2018-07-14T06:26:30.320Z,27.81
2018-07-14T06:27:01.546Z,27.88
2018-07-14T06:27:32.777Z,27.81
2018-07-14T06:28:03.957Z,27.76
2018-07-14T06:28:35.185Z,27.66
2018-07-14T06:29:06.461Z,27.53
2018-07-14T06:29:37.701Z,27.40
2018-07-14T06:30:08.926Z,27.36
2018-07-14T06:30:40.112Z,27.26
2018-07-14T06:31:11.301Z,27.27
2018-07-14T06:31:42.515Z,27.42
2018-07-14T06:32:13.743Z,27.50
2018-07-14T06:32:44.920Z,27.66
2018-07-14T06:33:16.094Z,27.76
2018-07-14T06:33:47.260Z,27.79
2018-07-14T06:34:18.483Z,27.88
2018-07-14T06:34:49.757Z,27.99
2018-07-14T06:35:20.937Z,27.98
2018-07-14T06:35:52.177Z,27.92
2018-07-14T06:36:23.357Z,27.85
2018-07-14T06:36:54.577Z,27.93
2018-07-14T06:37:25.810Z,28.00
2018-07-14T06:37:56.998Z,28.14
2018-07-14T06:38:28.226Z,28.08
2018-07-14T06:38:59.430Z,27.95
2018-07-14T06:39:30.657Z,27.87
2018-07-14T06:40:01.877Z,27.79
2018-07-14T06:40:33.044Z,27.71
2018-07-14T06:41:04.227Z,27.62
2018-07-14T06:41:35.403Z,27.48
2018-07-14T06:42:06.615Z,27.47
2018-07-14T06:42:37.788Z,27.39
2018-07-14T06:43:09.018Z,27.33
2018-07-14T06:43:40.208Z,27.35
2018-07-14T06:44:11.441Z,27.33
2018-07-14T06:44:42.691Z,27.25